Time;durP1;ratioP1;P1;durP2;ratioP2;P2;SDS_P1;SDS_P2;PMS_P1;PMS_P2;Temp;Humidity;BMP_temperature;BMP_pressure;BME280_temperature;BME280_humidity;BME280_pressure;Samples;Min_cycle;Max_cycle;Signal;HPM_P1;HPM_P2
2023/12/24 00:00:37;;;;;;;13.18;6.50;;;;;;;-146.58;100.00;69501.63;5041049;28;20547;-60
2023/12/24 00:03:03;;;;;;;13.48;4.95;;;;;;;-146.58;100.00;69501.63;5035734;28;20253;-59
2023/12/24 00:05:28;;;;;;;16.33;8.88;;;;;;;-146.58;100.00;69501.63;5051041;28;20076;-59
2023/12/24 00:07:54;;;;;;;11.57;6.15;;;;;;;-146.58;100.00;69501.63;5052736;28;20027;-59
2023/12/24 00:10:19;;;;;;;18.48;6.30;;;;;;;-146.58;100.00;69501.63;5050738;28;20472;-59
2023/12/24 00:12:45;;;;;;;13.43;5.57;;;;;;;-146.58;100.00;69501.63;5052435;28;20032;-59
2023/12/24 00:15:10;;;;;;;18.80;8.07;;;;;;;-146.58;100.00;69501.63;5051038;28;20078;-59
2023/12/24 00:17:35;;;;;;;15.30;7.40;;;;;;;-146.58;100.00;69501.63;5050501;28;20036;-59
2023/12/24 00:20:01;;;;;;;9.00;5.22;;;;;;;-146.58;100.00;69501.63;5032474;28;20059;-59
2023/12/24 00:22:28;;;;;;;8.20;5.80;;;;;;;-146.58;100.00;69501.63;5030947;28;20046;-59
2023/12/24 00:24:54;;;;;;;8.25;5.18;;;;;;;-146.58;100.00;69501.63;5032093;28;20500;-59
2023/12/24 00:27:19;;;;;;;12.93;6.20;;;;;;;-146.58;100.00;69501.63;5030477;28;20049;-59
2023/12/24 00:29:44;;;;;;;21.40;7.65;;;;;;;-146.58;100.00;69501.63;5030827;28;20033;-59
2023/12/24 00:32:10;;;;;;;9.07;5.40;;;;;;;-146.58;100.00;69501.63;5031994;28;20037;-59
2023/12/24 00:34:35;;;;;;;12.30;6.63;;;;;;;-146.58;100.00;69501.63;5050463;28;20041;-59
2023/12/24 00:37:01;;;;;;;17.65;7.93;;;;;;;-146.58;100.00;69501.63;5051977;28;20045;-59
2023/12/24 00:39:26;;;;;;;6.93;5.32;;;;;;;-146.58;100.00;69501.63;5050069;28;20496;-59
2023/12/24 00:41:51;;;;;;;12.05;5.85;;;;;;;-146.58;100.00;69501.63;5051672;28;20051;-59
2023/12/24 00:44:17;;;;;;;8.55;4.65;;;;;;;-146.58;100.00;69501.63;5050757;28;20033;-59
2023/12/24 00:46:44;;;;;;;11.77;5.97;;;;;;;-146.58;100.00;69501.63;5051408;28;20480;-59
2023/12/24 00:49:09;;;;;;;10.32;5.43;;;;;;;-146.58;100.00;69501.63;5050346;28;20076;-59
2023/12/24 00:51:40;;;;;;;11.75;5.18;;;;;;;-146.58;100.00;69501.63;5051584;28;20069;-59
2023/12/24 00:54:06;;;;;;;15.93;5.22;;;;;;;-146.58;100.00;69501.63;5050156;28;20464;-59
2023/12/24 00:56:31;;;;;;;10.30;4.95;;;;;;;-146.58;100.00;69501.63;5051279;28;20032;-59
2023/12/24 00:58:56;;;;;;;14.35;7.38;;;;;;;-146.58;100.00;69501.63;5036935;28;20033;-59
2023/12/24 01:01:22;;;;;;;14.90;5.40;;;;;;;-146.58;100.00;69501.63;5029850;28;20032;-59
2023/12/24 01:03:47;;;;;;;18.02;7.28;;;;;;;-146.58;100.00;69501.63;5042879;28;20036;-59
2023/12/24 01:06:13;;;;;;;6.20;3.83;;;;;;;-146.58;100.00;69501.63;5051597;28;20388;-60
2023/12/24 01:08:38;;;;;;;12.65;4.35;;;;;;;-146.58;100.00;69501.63;5050570;28;21010;-60
2023/12/24 01:11:03;;;;;;;8.25;3.45;;;;;;;-146.58;100.00;69501.63;5030145;28;20037;-60
2023/12/24 01:13:29;;;;;;;11.98;4.25;;;;;;;-146.58;100.00;69501.63;5031356;28;20022;-60
2023/12/24 01:15:54;;;;;;;18.83;4.95;;;;;;;-146.58;100.00;69501.63;5029697;28;20061;-60
2023/12/24 01:18:19;;;;;;;12.05;5.53;;;;;;;-146.58;100.00;69501.63;5031165;28;20017;-60
2023/12/24 01:20:45;;;;;;;6.38;3.38;;;;;;;-146.58;100.00;69501.63;5029939;28;20447;-60
2023/12/24 01:23:10;;;;;;;14.60;3.88;;;;;;;-146.58;100.00;69501.63;5031248;28;20033;-60
2023/12/24 01:25:36;;;;;;;13.40;4.22;;;;;;;-146.58;100.00;69501.63;5029630;28;20041;-60
2023/12/24 01:28:01;;;;;;;11.82;4.45;;;;;;;-146.58;100.00;69501.63;5031419;28;20028;-60
2023/12/24 01:30:26;;;;;;;6.20;3.28;;;;;;;-146.58;100.00;69501.63;5029477;28;20095;-59
2023/12/24 01:32:52;;;;;;;7.72;3.33;;;;;;;-146.58;100.00;69501.63;5036049;28;20025;-60
2023/12/24 01:35:17;;;;;;;8.82;3.67;;;;;;;-146.58;100.00;69501.63;5049473;28;20498;-60
2023/12/24 01:37:42;;;;;;;7.75;3.83;;;;;;;-146.58;100.00;69501.63;5050434;28;20049;-60
2023/12/24 01:40:08;;;;;;;7.15;2.97;;;;;;;-146.58;100.00;69501.63;5048865;28;20056;-60
2023/12/24 01:42:34;;;;;;;11.30;5.00;;;;;;;-146.58;100.00;69501.63;5050221;28;20468;-59
2023/12/24 01:44:59;;;;;;;14.70;3.95;;;;;;;-146.58;100.00;69501.63;5049367;28;20090;-59
2023/12/24 01:47:25;;;;;;;7.75;4.05;;;;;;;-146.58;100.00;69501.63;5050598;28;20025;-60
2023/12/24 01:49:51;;;;;;;11.70;3.25;;;;;;;-146.58;100.00;69501.63;5049438;28;20543;-60
2023/12/24 01:52:17;;;;;;;6.85;3.80;;;;;;;-146.58;100.00;69501.63;5050869;28;20027;-60
2023/12/24 01:54:45;;;;;;;20.48;5.07;;;;;;;-146.58;100.00;69501.63;5037720;28;20041;-60
2023/12/24 01:57:11;;;;;;;7.82;3.42;;;;;;;-146.58;100.00;69501.63;5030921;28;20033;-59
2023/12/24 01:59:37;;;;;;;8.82;4.30;;;;;;;-146.58;100.00;69501.63;5029184;28;20049;-60
2023/12/24 02:02:03;;;;;;;12.35;3.92;;;;;;;-146.58;100.00;69501.63;5030644;28;20033;-60
2023/12/24 02:04:29;;;;;;;8.90;4.57;;;;;;;-146.58;100.00;69501.63;5029149;28;20389;-60
2023/12/24 02:06:55;;;;;;;5.32;2.92;;;;;;;-146.58;100.00;69501.63;5030725;28;20040;-60
2023/12/24 02:09:20;;;;;;;8.32;2.85;;;;;;;-146.58;100.00;69501.63;5028705;28;20103;-59
2023/12/24 02:11:45;;;;;;;6.55;4.00;;;;;;;-146.58;100.00;69501.63;5030891;28;20034;-59
2023/12/24 02:14:11;;;;;;;5.70;3.20;;;;;;;-146.58;100.00;69501.63;5029322;28;20044;-60
2023/12/24 02:16:39;;;;;;;5.57;4.22;;;;;;;-146.58;100.00;69501.63;5029946;28;20432;-59
2023/12/24 02:19:06;;;;;;;5.57;3.97;;;;;;;-146.58;100.00;69501.63;5029320;28;20497;-60
2023/12/24 02:21:31;;;;;;;5.18;3.97;;;;;;;-146.58;100.00;69501.63;5035961;28;20451;-60
2023/12/24 02:23:57;;;;;;;8.48;4.18;;;;;;;-146.58;100.00;69501.63;5048458;28;20044;-59
2023/12/24 02:26:34;;;;;;;9.63;4.40;;;;;;;-146.58;100.00;69501.63;5050341;28;20495;-59
2023/12/24 02:29:06;;;;;;;4.95;3.30;;;;;;;-146.58;100.00;69501.63;5049296;28;20103;-59
2023/12/24 02:31:34;;;;;;;19.23;5.00;;;;;;;-146.58;100.00;69501.63;5050071;28;20040;-59
2023/12/24 02:34:02;;;;;;;8.75;5.70;;;;;;;-146.58;100.00;69501.63;5049181;28;20021;-59
2023/12/24 02:36:29;;;;;;;9.35;4.28;;;;;;;-146.58;100.00;69501.63;5049866;28;20499;-59
2023/12/24 02:38:56;;;;;;;7.68;4.32;;;;;;;-146.58;100.00;69501.63;5042747;28;20029;-59
2023/12/24 02:41:21;;;;;;;8.25;4.72;;;;;;;-146.58;100.00;69501.63;5030397;28;20022;-59
2023/12/24 02:43:47;;;;;;;9.10;5.38;;;;;;;-146.58;100.00;69501.63;5029151;28;20040;-59
2023/12/24 02:46:12;;;;;;;5.82;4.45;;;;;;;-146.58;100.00;69501.63;5042763;28;20025;-59
2023/12/24 02:48:37;;;;;;;6.43;5.40;;;;;;;-146.58;100.00;69501.63;5049790;28;20033;-59
2023/12/24 02:51:04;;;;;;;6.95;4.97;;;;;;;-146.58;100.00;69501.63;5045870;28;20044;-59
2023/12/24 02:53:29;;;;;;;5.40;4.88;;;;;;;-146.58;100.00;69501.63;5032114;28;20025;-60
2023/12/24 02:55:54;;;;;;;8.40;5.55;;;;;;;-146.58;100.00;69501.63;5032648;28;20048;-59
2023/12/24 02:58:20;;;;;;;7.97;6.05;;;;;;;-146.58;100.00;69501.63;5033822;28;20531;-60
2023/12/24 03:00:45;;;;;;;11.13;5.68;;;;;;;-146.58;100.00;69501.63;5033280;28;20046;-59
2023/12/24 03:03:11;;;;;;;8.90;5.75;;;;;;;-146.58;100.00;69501.63;5034175;28;20101;-60
2023/12/24 03:05:36;;;;;;;8.88;5.28;;;;;;;-146.58;100.00;69501.63;5032216;28;20037;-59
2023/12/24 03:08:02;;;;;;;9.18;4.97;;;;;;;-146.58;100.00;69501.63;5033437;28;20036;-60
2023/12/24 03:10:27;;;;;;;9.60;5.47;;;;;;;-146.58;100.00;69501.63;5032317;28;20029;-59
2023/12/24 03:12:52;;;;;;;10.05;5.90;;;;;;;-146.58;100.00;69501.63;5033842;28;20075;-60
2023/12/24 03:15:18;;;;;;;6.03;5.32;;;;;;;-146.58;100.00;69501.63;5037029;28;20045;-60
2023/12/24 03:17:43;;;;;;;8.95;6.43;;;;;;;-146.58;100.00;69501.63;5053566;28;20029;-60
2023/12/24 03:20:09;;;;;;;6.90;6.28;;;;;;;-146.58;100.00;69501.63;5052022;28;20037;-59
2023/12/24 03:22:34;;;;;;;12.63;7.40;;;;;;;-146.58;100.00;69501.63;5037565;28;20034;-60
2023/12/24 03:25:00;;;;;;;6.57;5.90;;;;;;;-146.58;100.00;69501.63;5032240;28;20038;-60
2023/12/24 03:27:25;;;;;;;12.57;6.28;;;;;;;-146.58;100.00;69501.63;5033320;28;20036;-59
2023/12/24 03:29:51;;;;;;;7.65;5.88;;;;;;;-146.58;100.00;69501.63;5031816;28;20067;-59
2023/12/24 03:32:16;;;;;;;16.05;7.43;;;;;;;-146.58;100.00;69501.63;5033337;28;20512;-60
2023/12/24 03:34:42;;;;;;;6.32;5.70;;;;;;;-146.58;100.00;69501.63;5031889;28;20076;-59
2023/12/24 03:37:07;;;;;;;15.98;9.35;;;;;;;-146.58;100.00;69501.63;5033739;28;20041;-59
2023/12/24 03:39:32;;;;;;;13.57;7.40;;;;;;;-146.58;100.00;69501.63;5031622;28;20143;-59
2023/12/24 03:41:58;;;;;;;11.82;8.18;;;;;;;-146.58;100.00;69501.63;5033375;28;20037;-60
2023/12/24 03:44:23;;;;;;;10.55;8.13;;;;;;;-146.58;100.00;69501.63;5031110;28;20037;-59
2023/12/24 03:46:48;;;;;;;12.95;8.55;;;;;;;-146.58;100.00;69501.63;5033275;28;20030;-59
2023/12/24 03:49:14;;;;;;;12.50;9.02;;;;;;;-146.58;100.00;69501.63;5031709;28;20688;-59
2023/12/24 03:51:39;;;;;;;11.23;8.18;;;;;;;-146.58;100.00;69501.63;5043494;28;20037;-60
2023/12/24 03:54:04;;;;;;;20.15;10.57;;;;;;;-146.58;100.00;69501.63;5051595;28;20048;-59
2023/12/24 03:56:30;;;;;;;10.50;9.10;;;;;;;-146.58;100.00;69501.63;5052321;28;20530;-59
2023/12/24 03:58:55;;;;;;;18.67;9.30;;;;;;;-146.58;100.00;69501.63;5051124;28;20029;-59
2023/12/24 04:01:25;;;;;;;12.45;8.90;;;;;;;-146.58;100.00;69501.63;5052718;28;20460;-59
2023/12/24 04:03:51;;;;;;;11.50;6.97;;;;;;;-146.58;100.00;69501.63;5051403;28;20052;-59
2023/12/24 04:06:16;;;;;;;14.38;8.20;;;;;;;-146.58;100.00;69501.63;5047902;28;20362;-59
2023/12/24 04:08:42;;;;;;;10.05;8.05;;;;;;;-146.58;100.00;69501.63;5032469;28;20504;-59
2023/12/24 04:11:15;;;;;;;18.75;7.70;;;;;;;-146.58;100.00;69501.63;5031412;28;20083;-59
2023/12/24 04:13:40;;;;;;;16.05;9.32;;;;;;;-146.58;100.00;69501.63;5032193;28;20033;-59
2023/12/24 04:16:07;;;;;;;10.80;8.48;;;;;;;-146.58;100.00;69501.63;5031035;28;20044;-59
2023/12/24 04:18:32;;;;;;;12.52;8.65;;;;;;;-146.58;100.00;69501.63;5032755;28;20108;-59
2023/12/24 04:20:58;;;;;;;10.52;7.40;;;;;;;-146.58;100.00;69501.63;5035884;28;20448;-59
2023/12/24 04:23:23;;;;;;;9.90;7.65;;;;;;;-146.58;100.00;69501.63;5052156;28;20032;-59
2023/12/24 04:25:49;;;;;;;13.00;7.82;;;;;;;-146.58;100.00;69501.63;5050961;28;20560;-59
2023/12/24 04:28:15;;;;;;;8.45;7.00;;;;;;;-146.58;100.00;69501.63;5041848;28;20022;-59
2023/12/24 04:30:40;;;;;;;8.95;7.00;;;;;;;-146.58;100.00;69501.63;5030594;28;20060;-59
2023/12/24 04:33:05;;;;;;;8.00;7.10;;;;;;;-146.58;100.00;69501.63;5032048;28;20033;-60
2023/12/24 04:35:31;;;;;;;10.45;7.43;;;;;;;-146.58;100.00;69501.63;5030224;28;20041;-59
2023/12/24 04:37:56;;;;;;;8.93;6.40;;;;;;;-146.58;100.00;69501.63;5031817;28;20533;-59
2023/12/24 04:40:21;;;;;;;7.22;6.05;;;;;;;-146.58;100.00;69501.63;5030451;28;20041;-59
2023/12/24 04:42:47;;;;;;;11.73;7.63;;;;;;;-146.58;100.00;69501.63;5031953;28;20072;-60
2023/12/24 04:45:13;;;;;;;7.60;6.32;;;;;;;-146.58;100.00;69501.63;5030511;28;20562;-60
2023/12/24 04:47:38;;;;;;;8.50;6.20;;;;;;;-146.58;100.00;69501.63;5038710;28;20048;-60
2023/12/24 04:50:04;;;;;;;9.85;7.97;;;;;;;-146.58;100.00;69501.63;5050087;28;20052;-59
2023/12/24 04:52:35;;;;;;;8.40;7.53;;;;;;;-146.58;100.00;69501.63;5051614;28;20024;-59
2023/12/24 04:55:02;;;;;;;6.65;6.00;;;;;;;-146.58;100.00;69501.63;5050586;28;20040;-60
2023/12/24 04:57:27;;;;;;;7.53;6.82;;;;;;;-146.58;100.00;69501.63;5050802;28;20033;-60
2023/12/24 04:59:52;;;;;;;6.88;6.18;;;;;;;-146.58;100.00;69501.63;5050093;28;20044;-60
2023/12/24 05:02:18;;;;;;;10.27;5.85;;;;;;;-146.58;100.00;69501.63;5050090;28;20036;-60
2023/12/24 05:04:43;;;;;;;7.10;6.13;;;;;;;-146.58;100.00;69501.63;5029969;28;20461;-59
2023/12/24 05:07:09;;;;;;;6.35;5.75;;;;;;;-146.58;100.00;69501.63;5031302;28;20021;-59
2023/12/24 05:09:34;;;;;;;8.13;6.10;;;;;;;-146.58;100.00;69501.63;5030130;28;20022;-59
2023/12/24 05:11:59;;;;;;;6.00;5.50;;;;;;;-146.58;100.00;69501.63;5031600;28;20022;-59
2023/12/24 05:14:25;;;;;;;10.05;5.68;;;;;;;-146.58;100.00;69501.63;5029638;28;20018;-54
2023/12/24 05:16:50;;;;;;;6.28;5.68;;;;;;;-146.58;100.00;69501.63;5030685;28;20604;-60
2023/12/24 05:19:15;;;;;;;5.60;4.95;;;;;;;-146.58;100.00;69501.63;5034353;28;20120;-59
2023/12/24 05:21:41;;;;;;;6.10;5.07;;;;;;;-146.58;100.00;69501.63;5049234;28;20036;-59
2023/12/24 05:24:06;;;;;;;5.63;5.13;;;;;;;-146.58;100.00;69501.63;5051364;28;20024;-59
2023/12/24 05:26:32;;;;;;;5.40;4.90;;;;;;;-146.58;100.00;69501.63;5049659;28;20074;-60
2023/12/24 05:28:57;;;;;;;5.45;4.97;;;;;;;-146.58;100.00;69501.63;5049446;28;20838;-59
2023/12/24 05:31:22;;;;;;;5.93;5.13;;;;;;;-146.58;100.00;69501.63;5050921;28;20029;-60
2023/12/24 05:33:48;;;;;;;6.90;4.85;;;;;;;-146.58;100.00;69501.63;5035884;28;20048;-60
2023/12/24 05:36:14;;;;;;;6.07;5.47;;;;;;;-146.58;100.00;69501.63;5030723;28;20428;-59
2023/12/24 05:38:40;;;;;;;5.25;4.75;;;;;;;-146.58;100.00;69501.63;5030880;28;20061;-59
2023/12/24 05:41:09;;;;;;;5.15;4.65;;;;;;;-146.58;100.00;69501.63;5030632;28;20408;-60
2023/12/24 05:43:35;;;;;;;5.00;4.60;;;;;;;-146.58;100.00;69501.63;5030734;28;20592;-60
2023/12/24 05:46:00;;;;;;;5.13;4.72;;;;;;;-146.58;100.00;69501.63;5029548;28;20034;-60
2023/12/24 05:48:26;;;;;;;5.20;4.00;;;;;;;-146.58;100.00;69501.63;5030973;28;20025;-59
2023/12/24 05:50:51;;;;;;;5.63;5.13;;;;;;;-146.58;100.00;69501.63;5045284;28;20040;-60
2023/12/24 05:53:16;;;;;;;5.07;4.68;;;;;;;-146.58;100.00;69501.63;5050608;28;20028;-59
2023/12/24 05:55:42;;;;;;;4.68;4.35;;;;;;;-146.58;100.00;69501.63;5049080;28;20475;-59
2023/12/24 05:58:07;;;;;;;5.13;4.63;;;;;;;-146.58;100.00;69501.63;5050373;28;20032;-60
2023/12/24 06:00:32;;;;;;;7.32;4.22;;;;;;;-146.58;100.00;69501.63;5048871;28;20033;-59
2023/12/24 06:02:58;;;;;;;3.97;3.60;;;;;;;-146.58;100.00;69501.63;5044205;28;20392;-60
2023/12/24 06:05:23;;;;;;;3.80;3.50;;;;;;;-146.58;100.00;69501.63;5028785;28;20049;-60
2023/12/24 06:07:48;;;;;;;4.75;3.92;;;;;;;-146.58;100.00;69501.63;5031118;28;20030;-59
2023/12/24 06:10:14;;;;;;;3.80;3.45;;;;;;;-146.58;100.00;69501.63;5030376;28;20137;-60
2023/12/24 06:12:40;;;;;;;3.58;3.28;;;;;;;-146.58;100.00;69501.63;5050169;28;20033;-60
2023/12/24 06:15:06;;;;;;;3.45;3.17;;;;;;;-146.58;100.00;69501.63;5049203;28;20033;-59
2023/12/24 06:17:31;;;;;;;3.67;3.38;;;;;;;-146.58;100.00;69501.63;5050254;28;20025;-59
2023/12/24 06:19:57;;;;;;;3.70;3.50;;;;;;;-146.58;100.00;69501.63;5048889;28;20091;-59
2023/12/24 06:22:22;;;;;;;3.50;3.30;;;;;;;-146.58;100.00;69501.63;5050395;28;20075;-59
2023/12/24 06:24:47;;;;;;;4.25;3.95;;;;;;;-146.58;100.00;69501.63;5048995;28;20063;-60
2023/12/24 06:27:13;;;;;;;4.07;3.75;;;;;;;-146.58;100.00;69501.63;5049988;28;20036;-59
2023/12/24 06:29:38;;;;;;;6.72;3.72;;;;;;;-146.58;100.00;69501.63;5052858;28;20044;-60
2023/12/24 06:32:04;;;;;;;3.22;2.92;;;;;;;-146.58;100.00;69501.63;5054918;28;20451;-60
2023/12/24 06:34:30;;;;;;;3.72;3.47;;;;;;;-146.58;100.00;69501.63;5033619;28;20041;-59
2023/12/24 06:36:55;;;;;;;3.47;3.17;;;;;;;-146.58;100.00;69501.63;5034283;28;20045;-59
2023/12/24 06:39:21;;;;;;;3.58;3.28;;;;;;;-146.58;100.00;69501.63;5032510;28;20493;-60
2023/12/24 06:41:47;;;;;;;3.13;2.92;;;;;;;-146.58;100.00;69501.63;5034173;28;20030;-59
2023/12/24 06:44:12;;;;;;;3.08;2.88;;;;;;;-146.58;100.00;69501.63;5033053;28;20034;-59
2023/12/24 06:46:38;;;;;;;3.45;3.20;;;;;;;-146.58;100.00;69501.63;5034372;28;20030;-60
2023/12/24 06:49:03;;;;;;;3.38;3.08;;;;;;;-146.58;100.00;69501.63;5032538;28;20040;-60
2023/12/24 06:51:29;;;;;;;3.53;3.22;;;;;;;-146.58;100.00;69501.63;5033955;28;20021;-60
2023/12/24 06:53:54;;;;;;;3.53;3.20;;;;;;;-146.58;100.00;69501.63;5032692;28;20025;-59
2023/12/24 06:56:19;;;;;;;3.45;3.15;;;;;;;-146.58;100.00;69501.63;5033094;28;20025;-60
2023/12/24 06:58:45;;;;;;;3.35;3.15;;;;;;;-146.58;100.00;69501.63;5032209;28;20032;-59
2023/12/24 07:01:10;;;;;;;3.30;3.10;;;;;;;-146.58;100.00;69501.63;5038318;28;20024;-59
2023/12/24 07:03:35;;;;;;;3.42;3.20;;;;;;;-146.58;100.00;69501.63;5053286;28;20033;-60
2023/12/24 07:06:01;;;;;;;3.40;3.15;;;;;;;-146.58;100.00;69501.63;5052446;28;20036;-59
2023/12/24 07:08:26;;;;;;;3.08;2.88;;;;;;;-146.58;100.00;69501.63;5034994;28;20900;-59
2023/12/24 07:10:51;;;;;;;3.38;3.08;;;;;;;-146.58;100.00;69501.63;5032180;28;20092;-60
2023/12/24 07:13:17;;;;;;;3.17;2.88;;;;;;;-146.58;100.00;69501.63;5033724;28;20021;-59
2023/12/24 07:15:43;;;;;;;4.22;3.92;;;;;;;-146.58;100.00;69501.63;5032230;28;20523;-59
2023/12/24 07:18:08;;;;;;;4.65;3.35;;;;;;;-146.58;100.00;69501.63;5033528;28;20037;-59
2023/12/24 07:20:34;;;;;;;3.50;3.20;;;;;;;-146.58;100.00;69501.63;5031922;28;20505;-60
2023/12/24 07:23:00;;;;;;;3.45;3.15;;;;;;;-146.58;100.00;69501.63;5033540;28;20057;-60
2023/12/24 07:25:25;;;;;;;3.95;3.65;;;;;;;-146.58;100.00;69501.63;5031842;28;20041;-59
2023/12/24 07:27:50;;;;;;;3.63;3.17;;;;;;;-146.58;100.00;69501.63;5033333;28;20025;-60
2023/12/24 07:30:16;;;;;;;3.47;3.17;;;;;;;-146.58;100.00;69501.63;5032150;28;20087;-60
2023/12/24 07:32:45;;;;;;;6.65;2.92;;;;;;;-146.58;100.00;69501.63;5050280;28;20036;-60
2023/12/24 07:35:10;;;;;;;4.38;4.03;;;;;;;-146.58;100.00;69501.63;5051638;28;20039;-60
2023/12/24 07:37:36;;;;;;;3.65;3.38;;;;;;;-146.58;100.00;69501.63;5052460;28;20045;-60
2023/12/24 07:40:01;;;;;;;3.72;3.20;;;;;;;-146.58;100.00;69501.63;5050975;28;20132;-59
2023/12/24 07:42:26;;;;;;;3.72;3.42;;;;;;;-146.58;100.00;69501.63;5052629;28;20028;-60
2023/12/24 07:44:52;;;;;;;3.97;3.67;;;;;;;-146.58;100.00;69501.63;5051472;28;20048;-60
2023/12/24 07:47:17;;;;;;;3.38;3.10;;;;;;;-146.58;100.00;69501.63;5053090;28;20488;-60
2023/12/24 07:49:42;;;;;;;3.38;3.17;;;;;;;-146.58;100.00;69501.63;5050786;28;20025;-59
2023/12/24 07:52:08;;;;;;;3.47;3.17;;;;;;;-146.58;100.00;69501.63;5053135;28;20032;-59
2023/12/24 07:54:33;;;;;;;4.50;4.15;;;;;;;-146.58;100.00;69501.63;5051172;28;20029;-60
2023/12/24 07:56:59;;;;;;;4.25;3.85;;;;;;;-146.58;100.00;69501.63;5052531;28;20422;-59
2023/12/24 07:59:24;;;;;;;4.13;3.83;;;;;;;-146.58;100.00;69501.63;5051779;28;20033;-59
2023/12/24 08:01:50;;;;;;;5.88;3.67;;;;;;;-146.58;100.00;69501.63;5050578;28;20075;-59
2023/12/24 08:04:15;;;;;;;3.38;3.17;;;;;;;-146.58;100.00;69501.63;5051980;28;20499;-59
2023/12/24 08:06:40;;;;;;;3.83;3.53;;;;;;;-146.58;100.00;69501.63;5051214;28;20037;-60
2023/12/24 08:09:07;;;;;;;4.03;3.72;;;;;;;-146.58;100.00;69501.63;5052761;28;20016;-60
2023/12/24 08:11:33;;;;;;;3.17;2.97;;;;;;;-146.58;100.00;69501.63;5050620;28;20037;-59
2023/12/24 08:13:58;;;;;;;2.92;2.72;;;;;;;-146.58;100.00;69501.63;5052717;28;20025;-59
2023/12/24 08:16:23;;;;;;;2.75;2.55;;;;;;;-146.58;100.00;69501.63;5050630;28;20139;-60
2023/12/24 08:18:49;;;;;;;3.38;2.95;;;;;;;-146.58;100.00;69501.63;5038539;28;20030;-59
2023/12/24 08:21:14;;;;;;;7.65;2.70;;;;;;;-146.58;100.00;69501.63;5031054;28;20080;-59
2023/12/24 08:23:40;;;;;;;3.47;2.70;;;;;;;-146.58;100.00;69501.63;5032556;28;20044;-60
2023/12/24 08:26:05;;;;;;;3.22;3.03;;;;;;;-146.58;100.00;69501.63;5034902;28;20041;-60
2023/12/24 08:28:31;;;;;;;2.45;2.35;;;;;;;-146.58;100.00;69501.63;5052403;28;20063;-59
2023/12/24 08:30:57;;;;;;;2.53;2.33;;;;;;;-146.58;100.00;69501.63;5037653;28;20041;-59
2023/12/24 08:33:22;;;;;;;3.33;3.13;;;;;;;-146.58;100.00;69501.63;5031819;28;20048;-59
2023/12/24 08:35:48;;;;;;;2.83;2.63;;;;;;;-146.58;100.00;69501.63;5030921;28;20495;-59
2023/12/24 08:38:13;;;;;;;2.90;2.45;;;;;;;-146.58;100.00;69501.63;5032013;28;20096;-60
2023/12/24 08:40:38;;;;;;;2.95;2.75;;;;;;;-146.58;100.00;69501.63;5030077;28;20061;-60
2023/12/24 08:43:04;;;;;;;3.13;2.78;;;;;;;-146.58;100.00;69501.63;5032449;28;20025;-60
2023/12/24 08:45:29;;;;;;;2.80;2.50;;;;;;;-146.58;100.00;69501.63;5030474;28;20037;-59
2023/12/24 08:47:55;;;;;;;3.10;2.90;;;;;;;-146.58;100.00;69501.63;5031831;28;20160;-59
2023/12/24 08:50:23;;;;;;;3.08;2.72;;;;;;;-146.58;100.00;69501.63;5030234;28;20033;-60
2023/12/24 08:52:48;;;;;;;3.00;2.80;;;;;;;-146.58;100.00;69501.63;5034367;28;20034;-59
2023/12/24 08:55:15;;;;;;;3.10;2.78;;;;;;;-146.58;100.00;69501.63;5050051;28;20040;-60
2023/12/24 08:57:40;;;;;;;4.93;2.90;;;;;;;-146.58;100.00;69501.63;5051215;28;20021;-60
2023/12/24 09:00:11;;;;;;;3.78;3.47;;;;;;;-146.58;100.00;69501.63;5044356;28;20045;-60
2023/12/24 09:02:37;;;;;;;2.78;2.58;;;;;;;-146.58;100.00;69501.63;5031487;28;20486;-59
2023/12/24 09:05:02;;;;;;;3.00;2.80;;;;;;;-146.58;100.00;69501.63;5030359;28;20037;-60
2023/12/24 09:07:28;;;;;;;2.72;2.53;;;;;;;-146.58;100.00;69501.63;5031760;28;20032;-60
2023/12/24 09:09:53;;;;;;;3.60;2.60;;;;;;;-146.58;100.00;69501.63;5029660;28;20493;-60
2023/12/24 09:12:19;;;;;;;2.85;2.65;;;;;;;-146.58;100.00;69501.63;5031825;28;20041;-60
2023/12/24 09:14:44;;;;;;;2.58;2.40;;;;;;;-146.58;100.00;69501.63;5030189;28;20469;-60
2023/12/24 09:17:10;;;;;;;2.50;2.30;;;;;;;-146.58;100.00;69501.63;5031064;28;20029;-59
2023/12/24 09:19:35;;;;;;;2.45;2.25;;;;;;;-146.58;100.00;69501.63;5029874;28;20047;-60
2023/12/24 09:22:00;;;;;;;2.03;1.92;;;;;;;-146.58;100.00;69501.63;5031366;28;20018;-59
2023/12/24 09:24:26;;;;;;;2.90;2.28;;;;;;;-146.58;100.00;69501.63;5030670;28;20061;-60
2023/12/24 09:26:51;;;;;;;2.22;2.13;;;;;;;-146.58;100.00;69501.63;5029915;28;20049;-60
2023/12/24 09:29:21;;;;;;;4.00;2.20;;;;;;;-146.58;100.00;69501.63;5029899;28;20033;-60
2023/12/24 09:31:47;;;;;;;2.45;2.35;;;;;;;-146.58;100.00;69501.63;5050320;28;20060;-60
2023/12/24 09:34:12;;;;;;;2.25;2.08;;;;;;;-146.58;100.00;69501.63;5049855;28;20489;-60
2023/12/24 09:36:38;;;;;;;3.20;1.95;;;;;;;-146.58;100.00;69501.63;5050472;28;20045;-59
2023/12/24 09:39:04;;;;;;;2.33;2.22;;;;;;;-146.58;100.00;69501.63;5049419;28;20029;-60
2023/12/24 09:41:29;;;;;;;2.00;1.90;;;;;;;-146.58;100.00;69501.63;5051050;28;20025;-60
2023/12/24 09:43:54;;;;;;;2.30;2.20;;;;;;;-146.58;100.00;69501.63;5049607;28;20056;-59
2023/12/24 09:46:20;;;;;;;2.10;2.00;;;;;;;-146.58;100.00;69501.63;5032523;28;20099;-59
2023/12/24 09:48:45;;;;;;;2.33;2.10;;;;;;;-146.58;100.00;69501.63;5029523;28;20025;-59
2023/12/24 09:51:11;;;;;;;1.92;1.83;;;;;;;-146.58;100.00;69501.63;5031065;28;20076;-60
2023/12/24 09:53:36;;;;;;;1.67;1.58;;;;;;;-146.58;100.00;69501.63;5029220;28;20499;-60
2023/12/24 09:56:02;;;;;;;1.92;1.83;;;;;;;-146.58;100.00;69501.63;5028359;28;20044;-59
2023/12/24 09:58:27;;;;;;;1.77;1.67;;;;;;;-146.58;100.00;69501.63;5030473;28;20107;-59
2023/12/24 10:00:53;;;;;;;1.98;1.88;;;;;;;-146.58;100.00;69501.63;5040119;28;20045;-60
2023/12/24 10:03:18;;;;;;;1.80;1.70;;;;;;;-146.58;100.00;69501.63;5049917;28;20020;-60
2023/12/24 10:06:03;;;;;;;1.98;1.88;;;;;;;-146.58;100.00;69501.63;5048979;28;20041;-59
2023/12/24 10:08:30;;;;;;;2.35;2.25;;;;;;;-146.58;100.00;69501.63;5050058;28;20021;-59
2023/12/24 10:10:56;;;;;;;2.63;1.98;;;;;;;-146.58;100.00;69501.63;5049048;28;20041;-59
2023/12/24 10:13:22;;;;;;;1.80;1.70;;;;;;;-146.58;100.00;69501.63;5050410;28;20025;-59
2023/12/24 10:16:04;;;;;;;2.80;2.45;;;;;;;-146.58;100.00;69501.63;5035814;28;20100;-59
2023/12/24 10:18:31;;;;;;;1.70;1.60;;;;;;;-146.58;100.00;69501.63;5030530;28;20018;-60
2023/12/24 10:21:08;;;;;;;1.95;1.85;;;;;;;-146.58;100.00;69501.63;5029162;28;20039;-59
2023/12/24 10:23:35;;;;;;;2.00;1.90;;;;;;;-146.58;100.00;69501.63;5029857;28;20492;-60
2023/12/24 10:26:06;;;;;;;2.45;1.83;;;;;;;-146.58;100.00;69501.63;5029008;28;20045;-59
2023/12/24 10:28:33;;;;;;;2.17;1.90;;;;;;;-146.58;100.00;69501.63;5030707;28;20036;-60
2023/12/24 10:31:08;;;;;;;3.05;1.83;;;;;;;-146.58;100.00;69501.63;5040656;28;20040;-60
2023/12/24 10:33:35;;;;;;;2.80;2.38;;;;;;;-146.58;100.00;69501.63;5050145;28;20036;-60
2023/12/24 10:36:01;;;;;;;3.00;2.20;;;;;;;-146.58;100.00;69501.63;5049041;28;20048;-59
2023/12/24 10:38:27;;;;;;;2.17;1.90;;;;;;;-146.58;100.00;69501.63;5049629;28;20083;-59
2023/12/24 10:40:53;;;;;;;2.33;2.22;;;;;;;-146.58;100.00;69501.63;5044063;28;20132;-60
2023/12/24 10:43:18;;;;;;;2.80;2.60;;;;;;;-146.58;100.00;69501.63;5030865;28;20033;-60
2023/12/24 10:45:44;;;;;;;2.10;2.00;;;;;;;-146.58;100.00;69501.63;5028591;28;20121;-59
2023/12/24 10:48:09;;;;;;;2.78;2.25;;;;;;;-146.58;100.00;69501.63;5030398;28;20025;-60
2023/12/24 10:50:35;;;;;;;3.00;2.60;;;;;;;-146.58;100.00;69501.63;5028977;28;20041;-60
2023/12/24 10:53:00;;;;;;;19.83;3.85;;;;;;;-146.58;100.00;69501.63;5030197;28;20079;-60
2023/12/24 10:55:26;;;;;;;4.70;2.80;;;;;;;-146.58;100.00;69501.63;5028645;28;20040;-60
2023/12/24 10:58:24;;;;;;;4.60;2.72;;;;;;;-146.58;100.00;69501.63;5030609;28;20036;-60
2023/12/24 11:00:50;;;;;;;5.40;3.28;;;;;;;-146.58;100.00;69501.63;5005182;28;20045;-59